createdAt,value
2018-03-11T00:00:57.740Z,4.61
2018-03-11T00:03:24.063Z,4.49
2018-03-11T00:05:50.385Z,4.38
2018-03-11T00:08:17.034Z,4.44
2018-03-11T00:10:43.424Z,4.41
2018-03-11T00:13:09.775Z,4.33
2018-03-11T00:15:36.104Z,4.33
2018-03-11T00:18:02.615Z,4.34
2018-03-11T00:20:28.947Z,4.35
2018-03-11T00:22:55.327Z,4.26
2018-03-11T00:25:21.768Z,4.16
2018-03-11T00:27:48.138Z,4.16
2018-03-11T00:30:14.467Z,4.11
2018-03-11T00:32:40.970Z,4.17
2018-03-11T00:35:07.326Z,4.09
2018-03-11T00:37:33.740Z,4.29
2018-03-11T00:40:00.122Z,4.23
2018-03-11T00:42:26.569Z,4.25
2018-03-11T00:44:52.873Z,4.31
2018-03-11T00:47:19.271Z,4.10
2018-03-11T00:49:45.589Z,3.98
2018-03-11T00:52:11.970Z,3.90
2018-03-11T00:54:38.290Z,3.85
2018-03-11T00:57:04.627Z,3.83
2018-03-11T00:59:30.970Z,3.69
2018-03-11T01:01:57.377Z,3.57
2018-03-11T01:04:23.715Z,3.61
2018-03-11T01:06:50.196Z,3.53
2018-03-11T01:09:16.542Z,3.48
2018-03-11T01:11:42.880Z,3.32
2018-03-11T01:14:09.387Z,3.32
2018-03-11T01:16:35.734Z,3.29
2018-03-11T01:19:02.151Z,3.33
2018-03-11T01:21:28.482Z,3.39
2018-03-11T01:23:54.953Z,3.67
2018-03-11T01:26:21.288Z,3.56
2018-03-11T01:28:47.611Z,3.31
2018-03-11T01:31:14.091Z,3.17
2018-03-11T01:33:40.470Z,3.22
2018-03-11T01:36:06.852Z,3.22
2018-03-11T01:38:33.238Z,3.15
2018-03-11T01:40:59.713Z,3.08
2018-03-11T01:43:26.117Z,3.28
2018-03-11T01:45:52.472Z,3.15
2018-03-11T01:48:18.806Z,3.03
2018-03-11T01:50:45.126Z,3.03
2018-03-11T01:53:11.717Z,3.09
2018-03-11T01:55:38.212Z,3.11
2018-03-11T01:58:04.605Z,3.03
2018-03-11T02:00:30.981Z,2.96
2018-03-11T02:02:57.360Z,2.87
2018-03-11T02:05:23.701Z,2.76
2018-03-11T02:07:50.034Z,2.83
2018-03-11T02:10:16.401Z,2.80
2018-03-11T02:12:42.790Z,2.78
2018-03-11T02:15:09.166Z,2.70
2018-03-11T02:17:35.475Z,2.74
2018-03-11T02:20:01.800Z,2.76
2018-03-11T02:22:28.264Z,2.67
2018-03-11T02:24:54.581Z,2.68
2018-03-11T02:27:20.917Z,2.78
2018-03-11T02:29:47.382Z,2.82
2018-03-11T02:32:13.772Z,2.73
2018-03-11T02:34:40.090Z,2.63
2018-03-11T02:37:06.506Z,2.61
2018-03-11T02:39:32.872Z,2.62
2018-03-11T02:41:59.282Z,2.60
2018-03-11T02:44:25.675Z,2.48
2018-03-11T02:46:52.015Z,2.48
2018-03-11T02:49:18.328Z,2.37
2018-03-11T02:51:44.813Z,2.38
2018-03-11T02:54:11.129Z,2.13
2018-03-11T02:56:37.444Z,1.95
2018-03-11T02:59:03.843Z,1.87
2018-03-11T03:01:30.237Z,1.85
2018-03-11T03:03:56.565Z,1.79
2018-03-11T03:06:22.847Z,1.81
2018-03-11T03:08:49.188Z,1.83
2018-03-11T03:11:15.557Z,1.93
2018-03-11T03:13:41.962Z,1.96
2018-03-11T03:16:08.290Z,1.99
2018-03-11T03:18:34.633Z,1.99
2018-03-11T03:21:01.027Z,1.91
2018-03-11T03:23:27.420Z,1.93
2018-03-11T03:25:53.773Z,1.86
2018-03-11T03:28:20.108Z,1.89
2018-03-11T03:30:46.553Z,1.88
2018-03-11T03:33:12.984Z,1.89
2018-03-11T03:35:39.324Z,1.85
2018-03-11T03:38:05.691Z,1.84
2018-03-11T03:40:32.006Z,1.82
2018-03-11T03:42:58.420Z,1.69
2018-03-11T03:45:24.770Z,1.64
2018-03-11T03:47:51.065Z,1.70
2018-03-11T03:50:17.503Z,1.68
2018-03-11T03:52:43.923Z,1.69
2018-03-11T03:55:10.215Z,1.80
2018-03-11T03:57:36.532Z,1.79
2018-03-11T04:00:02.912Z,1.85
2018-03-11T04:02:29.349Z,1.84
2018-03-11T04:04:55.757Z,2.01
2018-03-11T04:07:22.081Z,1.81
2018-03-11T04:09:48.372Z,1.77
2018-03-11T04:12:14.949Z,1.77
2018-03-11T04:14:41.260Z,1.69
2018-03-11T04:17:07.548Z,1.69
2018-03-11T04:19:33.910Z,1.76
2018-03-11T04:22:00.322Z,1.60
2018-03-11T04:24:26.707Z,1.64
2018-03-11T04:26:53.103Z,1.50
2018-03-11T04:29:19.424Z,1.38
2018-03-11T04:31:46.051Z,1.37
2018-03-11T04:34:12.479Z,1.33
2018-03-11T04:36:38.811Z,1.29
2018-03-11T04:39:05.217Z,1.17
2018-03-11T04:41:31.595Z,1.06
2018-03-11T04:43:57.987Z,0.91
2018-03-11T04:46:24.300Z,0.86
2018-03-11T04:48:50.643Z,0.84
2018-03-11T04:51:17.018Z,0.90
2018-03-11T04:53:43.502Z,1.01
2018-03-11T04:56:10.035Z,1.03
2018-03-11T04:58:36.338Z,1.42
2018-03-11T05:01:03.010Z,1.45
2018-03-11T05:03:29.452Z,1.51
2018-03-11T05:05:55.785Z,1.50
2018-03-11T05:08:22.152Z,1.46
2018-03-11T05:10:48.491Z,1.36
2018-03-11T05:13:15.020Z,1.33
2018-03-11T05:15:41.345Z,1.38
2018-03-11T05:18:07.727Z,1.42
2018-03-11T05:20:34.038Z,1.56
2018-03-11T05:23:00.532Z,1.78
2018-03-11T05:25:26.916Z,1.70
2018-03-11T05:27:53.228Z,1.83
2018-03-11T05:30:19.613Z,1.72
2018-03-11T05:32:46.012Z,1.65
2018-03-11T05:35:12.336Z,1.86
2018-03-11T05:37:38.672Z,2.69
2018-03-11T05:40:05.114Z,3.75
2018-03-11T05:42:31.557Z,5.18
2018-03-11T05:44:57.870Z,6.19
2018-03-11T05:47:24.244Z,6.75
2018-03-11T05:49:50.608Z,7.41
2018-03-11T05:52:17.101Z,7.86
2018-03-11T05:54:43.525Z,7.56
2018-03-11T05:57:09.818Z,8.03
2018-03-11T05:59:36.317Z,8.06
2018-03-11T06:02:03.759Z,8.40
2018-03-11T06:04:30.086Z,8.60
2018-03-11T06:06:56.558Z,8.02
2018-03-11T06:09:23.108Z,7.34
2018-03-11T06:11:50.001Z,7.33
2018-03-11T06:14:33.937Z,7.33
2018-03-11T06:17:00.265Z,7.30
2018-03-11T06:19:26.646Z,7.32
2018-03-11T06:21:53.089Z,7.02
2018-03-11T06:24:19.532Z,7.00
2018-03-11T06:26:45.850Z,7.04
2018-03-11T06:29:12.230Z,6.77
2018-03-11T06:31:38.543Z,6.68
2018-03-11T06:34:05.346Z,6.61
2018-03-11T06:36:31.728Z,6.74
2018-03-11T06:38:58.174Z,7.02
2018-03-11T06:41:24.957Z,7.09
2018-03-11T06:43:51.658Z,7.51
2018-03-11T06:46:18.153Z,7.83
2018-03-11T06:48:44.483Z,8.02
2018-03-11T06:51:10.854Z,8.20
2018-03-11T06:53:37.516Z,8.29
2018-03-11T06:56:03.878Z,8.15
2018-03-11T06:58:30.268Z,7.82
2018-03-11T07:00:56.664Z,7.55
2018-03-11T07:03:23.152Z,7.68
2018-03-11T07:05:49.648Z,7.76
2018-03-11T07:08:16.298Z,7.95
2018-03-11T07:10:42.617Z,8.12
2018-03-11T07:13:09.065Z,8.31
2018-03-11T07:15:35.785Z,8.38
2018-03-11T07:18:02.310Z,8.56
2018-03-11T07:20:28.789Z,8.86
2018-03-11T07:22:55.111Z,8.68
2018-03-11T07:25:21.436Z,8.73
2018-03-11T07:27:47.911Z,8.37
2018-03-11T07:30:14.318Z,8.47
2018-03-11T07:32:40.840Z,8.97
2018-03-11T07:35:07.225Z,9.02
2018-03-11T07:37:33.552Z,8.94
2018-03-11T07:39:59.925Z,9.11
2018-03-11T07:42:26.354Z,9.35
2018-03-11T07:44:52.713Z,9.82
2018-03-11T07:47:19.084Z,10.01
2018-03-11T07:49:45.906Z,10.15
2018-03-11T07:52:12.231Z,10.34
2018-03-11T07:54:38.634Z,10.70
2018-03-11T07:57:05.222Z,11.07
2018-03-11T07:59:31.666Z,11.21
2018-03-11T08:01:58.071Z,11.16
2018-03-11T08:04:24.683Z,10.93
2018-03-11T08:06:51.005Z,10.87
2018-03-11T08:09:17.445Z,10.89
2018-03-11T08:11:44.005Z,10.95
2018-03-11T08:14:10.436Z,11.44
2018-03-11T08:16:36.892Z,11.70
2018-03-11T08:19:03.246Z,12.01
2018-03-11T08:21:29.608Z,12.16
2018-03-11T08:23:56.162Z,12.03
2018-03-11T08:26:22.946Z,12.25
2018-03-11T08:28:49.745Z,12.68
2018-03-11T08:31:16.164Z,12.96
2018-03-11T08:33:42.973Z,12.85
2018-03-11T08:36:09.403Z,13.07
2018-03-11T08:38:35.719Z,13.16
2018-03-11T08:41:02.052Z,13.29
2018-03-11T08:43:28.420Z,13.33
2018-03-11T08:45:54.888Z,13.35
2018-03-11T08:48:21.546Z,13.79
2018-03-11T08:50:47.931Z,14.29
2018-03-11T08:53:14.424Z,13.89
2018-03-11T08:55:40.817Z,13.67
2018-03-11T08:58:07.346Z,13.99
2018-03-11T09:00:33.756Z,14.17
2018-03-11T09:03:00.204Z,15.00
2018-03-11T09:05:26.577Z,14.84
2018-03-11T09:07:52.914Z,14.70
2018-03-11T09:10:19.319Z,14.49
2018-03-11T09:12:45.842Z,14.79
2018-03-11T09:15:12.194Z,14.99
2018-03-11T09:17:38.648Z,15.25
2018-03-11T09:20:05.061Z,15.52
2018-03-11T09:22:31.434Z,15.64
2018-03-11T09:24:57.810Z,15.84
2018-03-11T09:27:24.246Z,15.85
2018-03-11T09:29:50.600Z,15.97
2018-03-11T09:32:16.921Z,16.10
2018-03-11T09:34:43.398Z,16.17
2018-03-11T09:37:09.862Z,16.26
2018-03-11T09:39:36.218Z,16.29
2018-03-11T09:42:02.649Z,16.03
2018-03-11T09:44:29.309Z,16.54
2018-03-11T09:46:55.776Z,16.29
2018-03-11T09:49:22.228Z,16.21
2018-03-11T09:51:48.809Z,16.67
2018-03-11T09:54:15.518Z,16.67
2018-03-11T09:56:41.995Z,16.25
2018-03-11T09:59:08.407Z,16.65
2018-03-11T10:01:34.764Z,16.79
2018-03-11T10:04:01.844Z,16.98
2018-03-11T10:06:28.589Z,16.84
2018-03-11T10:08:55.095Z,17.06
2018-03-11T10:11:21.534Z,16.95
2018-03-11T10:13:47.955Z,17.20
2018-03-11T10:16:14.925Z,17.24
2018-03-11T10:18:41.890Z,17.26
2018-03-11T10:21:08.553Z,16.97
2018-03-11T10:23:35.158Z,16.94
2018-03-11T10:26:01.660Z,17.23
2018-03-11T10:28:28.455Z,17.59
2018-03-11T10:30:55.291Z,17.83
2018-03-11T10:33:22.006Z,17.58
2018-03-11T10:35:48.590Z,17.34
2018-03-11T10:38:15.265Z,17.60
2018-03-11T10:40:41.890Z,17.35
2018-03-11T10:43:09.112Z,16.97
2018-03-11T10:45:35.691Z,17.18
2018-03-11T10:48:02.218Z,17.58
2018-03-11T10:50:28.730Z,17.64
2018-03-11T10:52:55.703Z,18.09
2018-03-11T10:55:22.653Z,18.02
2018-03-11T10:57:49.053Z,17.67
2018-03-11T11:00:16.320Z,17.62
2018-03-11T11:02:42.800Z,17.50
2018-03-11T11:05:09.349Z,17.31
2018-03-11T11:07:35.791Z,17.73
2018-03-11T11:10:02.265Z,18.10
2018-03-11T11:12:28.851Z,18.16
2018-03-11T11:14:55.514Z,18.05
2018-03-11T11:17:21.984Z,17.94
2018-03-11T11:19:48.433Z,18.05
2018-03-11T11:22:14.807Z,17.99
2018-03-11T11:24:41.797Z,18.24
2018-03-11T11:27:08.231Z,18.34
2018-03-11T11:29:34.639Z,18.23
2018-03-11T11:32:01.047Z,18.19
2018-03-11T11:34:27.548Z,17.94
2018-03-11T11:36:53.907Z,18.06
2018-03-11T11:39:21.083Z,18.00
2018-03-11T11:41:47.902Z,17.98
2018-03-11T11:44:14.420Z,18.10
2018-03-11T11:46:40.873Z,18.03
2018-03-11T11:49:07.338Z,17.99
2018-03-11T11:51:33.849Z,18.05
2018-03-11T11:54:00.667Z,18.04
2018-03-11T11:56:27.458Z,18.05
2018-03-11T11:58:54.023Z,18.15
2018-03-11T12:01:20.527Z,18.70
2018-03-11T12:03:47.252Z,18.84
2018-03-11T12:06:13.837Z,18.68
2018-03-11T12:08:40.413Z,18.78
2018-03-11T12:11:06.899Z,18.59
2018-03-11T12:13:33.513Z,18.37
2018-03-11T12:16:00.063Z,18.39
2018-03-11T12:18:26.494Z,18.80
2018-03-11T12:20:53.112Z,18.55
2018-03-11T12:23:19.881Z,18.51
2018-03-11T12:25:46.726Z,18.49
2018-03-11T12:28:13.924Z,18.41
2018-03-11T12:30:40.572Z,18.48
2018-03-11T12:33:07.039Z,18.43
2018-03-11T12:35:33.903Z,18.69
2018-03-11T12:38:00.923Z,18.94
2018-03-11T12:40:27.966Z,18.89
2018-03-11T12:42:54.744Z,19.19
2018-03-11T12:45:21.237Z,19.43
2018-03-11T12:47:48.137Z,19.43
2018-03-11T12:50:14.557Z,19.34
2018-03-11T12:52:41.256Z,19.41
2018-03-11T12:55:07.969Z,19.36
2018-03-11T12:57:34.380Z,19.47
2018-03-11T13:00:00.864Z,19.41
2018-03-11T13:02:27.467Z,19.52
2018-03-11T13:04:54.107Z,19.26
2018-03-11T13:07:20.589Z,19.57
2018-03-11T13:09:47.112Z,19.50
2018-03-11T13:12:13.753Z,19.57
2018-03-11T13:14:40.306Z,19.76
2018-03-11T13:17:06.692Z,19.67
2018-03-11T13:19:33.523Z,19.69
2018-03-11T13:22:00.095Z,19.63
2018-03-11T13:24:27.975Z,19.50
2018-03-11T13:26:54.607Z,19.43
2018-03-11T13:29:21.881Z,19.44
2018-03-11T13:31:48.518Z,19.46
2018-03-11T13:34:26.391Z,19.49
2018-03-11T13:36:52.953Z,19.38
2018-03-11T13:39:32.069Z,19.38
2018-03-11T13:41:58.940Z,19.48
2018-03-11T13:44:25.523Z,19.36
2018-03-11T13:47:10.939Z,19.58
2018-03-11T13:49:37.603Z,19.60
2018-03-11T13:52:16.294Z,19.53
2018-03-11T13:54:42.919Z,19.47
2018-03-11T14:00:06.319Z,19.50
2018-03-11T14:02:33.148Z,19.41
2018-03-11T14:04:59.908Z,19.43
2018-03-11T14:07:26.390Z,19.16
2018-03-11T14:09:52.843Z,19.18
2018-03-11T14:12:19.410Z,19.20
2018-03-11T14:14:45.991Z,19.12
2018-03-11T14:17:12.584Z,18.96
2018-03-11T14:19:39.054Z,18.67
2018-03-11T14:22:06.564Z,18.71
2018-03-11T14:24:33.793Z,18.60
2018-03-11T14:27:02.414Z,18.51
2018-03-11T14:29:29.280Z,18.51
2018-03-11T14:31:55.715Z,18.41
2018-03-11T14:34:22.147Z,18.51
2018-03-11T14:36:48.578Z,18.42
2018-03-11T14:39:15.095Z,18.47
2018-03-11T14:41:41.827Z,18.39
2018-03-11T14:44:08.264Z,18.32
2018-03-11T14:46:34.743Z,18.27
2018-03-11T14:49:01.134Z,18.32
2018-03-11T14:51:27.785Z,18.24
2018-03-11T14:53:54.447Z,18.05
2018-03-11T14:56:21.029Z,17.98
2018-03-11T14:58:47.505Z,17.89
2018-03-11T15:01:13.988Z,17.97
2018-03-11T15:03:40.659Z,17.74
2018-03-11T15:06:07.171Z,17.63
2018-03-11T15:08:33.642Z,17.40
2018-03-11T15:11:01.389Z,17.27
2018-03-11T15:13:27.988Z,17.41
2018-03-11T15:15:54.358Z,17.34
2018-03-11T15:18:20.765Z,17.17
2018-03-11T15:20:47.641Z,16.99
2018-03-11T15:23:14.305Z,16.79
2018-03-11T15:25:40.774Z,16.56
2018-03-11T15:28:07.251Z,16.49
2018-03-11T15:30:33.701Z,16.46
2018-03-11T15:33:00.277Z,16.62
2018-03-11T15:35:26.954Z,16.53
2018-03-11T15:37:53.427Z,16.40
2018-03-11T15:40:19.759Z,16.37
2018-03-11T15:42:46.128Z,16.33
2018-03-11T15:45:12.639Z,16.39
2018-03-11T15:47:39.080Z,16.24
2018-03-11T15:50:05.623Z,16.34
2018-03-11T15:52:32.069Z,16.20
2018-03-11T15:54:58.810Z,15.92
2018-03-11T15:57:25.208Z,15.88
2018-03-11T15:59:51.650Z,15.65
2018-03-11T16:02:18.194Z,15.70
2018-03-11T16:04:44.723Z,15.59
2018-03-11T16:07:11.642Z,15.61
2018-03-11T16:09:38.267Z,15.47
2018-03-11T16:12:04.945Z,15.35
2018-03-11T16:14:31.516Z,15.43
2018-03-11T16:16:58.070Z,15.18
2018-03-11T16:19:25.015Z,15.06
2018-03-11T16:21:51.894Z,15.09
2018-03-11T16:24:28.381Z,15.21
2018-03-11T16:26:44.859Z,15.09
2018-03-11T16:29:11.261Z,15.02
2018-03-11T16:31:37.714Z,14.89
2018-03-11T16:34:04.170Z,14.75
2018-03-11T16:36:30.703Z,14.78
2018-03-11T16:38:57.056Z,14.62
2018-03-11T16:41:23.431Z,14.52
2018-03-11T16:43:49.978Z,14.67
2018-03-11T16:46:16.435Z,14.64
2018-03-11T16:48:43.001Z,14.68
2018-03-11T16:51:09.879Z,14.47
2018-03-11T16:53:36.533Z,14.37
2018-03-11T16:56:03.351Z,14.49
2018-03-11T16:58:29.934Z,14.51
2018-03-11T17:00:56.314Z,14.41
2018-03-11T17:03:22.668Z,14.26
2018-03-11T17:05:49.260Z,14.46
2018-03-11T17:08:15.672Z,14.33
2018-03-11T17:10:42.039Z,14.13
2018-03-11T17:13:08.806Z,13.96
2018-03-11T17:15:35.347Z,13.95
2018-03-11T17:18:01.851Z,13.75
2018-03-11T17:20:28.591Z,13.75
2018-03-11T17:22:55.388Z,13.83
2018-03-11T17:25:22.076Z,13.93
2018-03-11T17:27:48.812Z,13.83
2018-03-11T17:30:15.470Z,13.90
2018-03-11T17:32:41.993Z,13.93
2018-03-11T17:35:08.639Z,13.98
2018-03-11T17:37:35.129Z,14.02
2018-03-11T17:40:01.599Z,13.92
2018-03-11T17:42:29.089Z,13.98
2018-03-11T17:44:55.792Z,13.97
2018-03-11T17:47:22.605Z,14.08
2018-03-11T17:49:49.151Z,14.13
2018-03-11T17:52:16.008Z,13.92
2018-03-11T17:54:42.948Z,13.97
2018-03-11T17:57:09.585Z,13.96
2018-03-11T17:59:36.372Z,14.08
2018-03-11T18:02:03.233Z,14.12
2018-03-11T18:04:30.088Z,13.99
2018-03-11T18:06:56.783Z,13.79
2018-03-11T18:09:23.439Z,13.93
2018-03-11T18:11:50.227Z,13.93
2018-03-11T18:14:19.205Z,13.60
2018-03-11T18:16:45.980Z,13.87
2018-03-11T18:19:12.806Z,13.82
2018-03-11T18:21:39.552Z,13.85
2018-03-11T18:24:06.445Z,13.67
2018-03-11T18:26:33.185Z,13.85
2018-03-11T18:29:00.120Z,13.86
2018-03-11T18:31:26.761Z,13.68
2018-03-11T18:33:53.593Z,13.73
2018-03-11T18:36:20.276Z,13.72
2018-03-11T18:38:46.967Z,13.66
2018-03-11T18:41:13.703Z,13.74
2018-03-11T18:43:40.358Z,13.63
2018-03-11T18:46:06.912Z,13.55
2018-03-11T18:48:33.826Z,13.40
2018-03-11T18:51:01.023Z,13.45
2018-03-11T18:53:28.068Z,13.52
2018-03-11T18:55:54.971Z,13.62
2018-03-11T18:58:22.505Z,13.59
2018-03-11T19:00:49.319Z,13.43
2018-03-11T19:03:16.032Z,13.44
2018-03-11T19:05:43.017Z,13.54
2018-03-11T19:08:10.005Z,13.61
2018-03-11T19:10:36.818Z,13.34
2018-03-11T19:13:03.663Z,13.31
2018-03-11T19:15:30.558Z,13.40
2018-03-11T19:17:57.779Z,13.38
2018-03-11T19:20:24.533Z,13.32
2018-03-11T19:22:51.280Z,13.48
2018-03-11T19:25:18.150Z,13.41
2018-03-11T19:27:45.051Z,13.33
2018-03-11T19:30:11.832Z,13.50
2018-03-11T19:32:38.847Z,13.40
2018-03-11T19:35:05.996Z,13.39
2018-03-11T19:37:32.666Z,13.50
2018-03-11T19:39:59.684Z,13.35
2018-03-11T19:42:26.599Z,13.30
2018-03-11T19:44:53.415Z,13.31
2018-03-11T19:47:20.118Z,13.26
2018-03-11T19:49:47.037Z,13.17
2018-03-11T19:52:13.904Z,13.15
2018-03-11T19:54:40.707Z,13.15
2018-03-11T19:57:07.699Z,13.25
2018-03-11T19:59:34.914Z,13.03
2018-03-11T20:02:02.326Z,13.05
2018-03-11T20:04:29.145Z,13.07
2018-03-11T20:06:56.346Z,12.97
2018-03-11T20:09:22.975Z,13.05
2018-03-11T20:11:49.745Z,13.00
2018-03-11T20:14:16.576Z,13.04
2018-03-11T20:16:44.300Z,13.01
2018-03-11T20:19:11.128Z,12.98
2018-03-11T20:21:37.821Z,12.96
2018-03-11T20:24:04.713Z,12.99
2018-03-11T20:26:31.343Z,13.18
2018-03-11T20:28:57.999Z,12.84
2018-03-11T20:31:24.596Z,12.85
2018-03-11T20:33:51.158Z,12.54
2018-03-11T20:36:17.916Z,12.27
2018-03-11T20:38:44.450Z,11.92
2018-03-11T20:41:10.941Z,11.53
2018-03-11T20:43:37.456Z,11.68
2018-03-11T20:46:04.053Z,11.47
2018-03-11T20:48:30.660Z,11.67
2018-03-11T20:50:57.128Z,11.37
2018-03-11T20:53:24.102Z,10.96
2018-03-11T20:55:51.216Z,10.65
2018-03-11T20:58:17.697Z,10.62
2018-03-11T21:00:44.645Z,10.21
2018-03-11T21:03:11.137Z,10.16
2018-03-11T21:05:37.943Z,9.93
2018-03-11T21:08:04.472Z,9.84
2018-03-11T21:10:31.032Z,9.90
2018-03-11T21:12:57.519Z,10.19
2018-03-11T21:15:24.391Z,9.88
2018-03-11T21:17:51.006Z,9.81
2018-03-11T21:20:17.790Z,9.82
2018-03-11T21:22:44.301Z,9.87
2018-03-11T21:25:11.977Z,9.73
2018-03-11T21:27:39.376Z,9.52
2018-03-11T21:30:06.251Z,9.82
2018-03-11T21:32:33.870Z,10.03
2018-03-11T21:35:00.974Z,9.61
2018-03-11T21:37:27.844Z,9.44
2018-03-11T21:39:55.003Z,9.16
2018-03-11T21:42:21.491Z,8.98
2018-03-11T21:44:48.513Z,9.02
2018-03-11T21:47:14.997Z,9.43
2018-03-11T21:49:41.477Z,9.27
2018-03-11T21:52:07.899Z,9.33
2018-03-11T21:54:34.728Z,9.39
2018-03-11T21:57:01.154Z,9.38
2018-03-11T21:59:27.574Z,9.31
2018-03-11T22:01:53.987Z,9.61
2018-03-11T22:04:20.430Z,9.77
2018-03-11T22:06:46.784Z,9.86
2018-03-11T22:09:13.321Z,9.70
2018-03-11T22:11:39.723Z,9.82
2018-03-11T22:14:06.123Z,10.06
2018-03-11T22:16:32.502Z,10.02
2018-03-11T22:18:58.926Z,9.85
2018-03-11T22:21:25.250Z,9.63
2018-03-11T22:23:52.257Z,10.03
2018-03-11T22:26:18.679Z,9.91
2018-03-11T22:28:45.046Z,10.20
2018-03-11T22:31:11.452Z,10.11
2018-03-11T22:33:37.835Z,10.20
2018-03-11T22:36:04.363Z,9.93
2018-03-11T22:38:31.079Z,10.24
2018-03-11T22:40:57.400Z,10.31
2018-03-11T22:43:23.761Z,10.00
2018-03-11T22:45:50.166Z,9.85
2018-03-11T22:48:16.813Z,10.28
2018-03-11T22:50:43.263Z,10.58
2018-03-11T22:53:09.594Z,10.61
2018-03-11T22:55:35.972Z,10.31
2018-03-11T22:58:02.656Z,10.33
2018-03-11T23:00:29.078Z,9.94
2018-03-11T23:02:55.525Z,9.77
2018-03-11T23:05:22.097Z,9.41
2018-03-11T23:07:48.927Z,9.60
2018-03-11T23:10:15.423Z,9.34
2018-03-11T23:12:41.809Z,9.37
2018-03-11T23:15:08.318Z,9.62
2018-03-11T23:17:34.953Z,9.90
2018-03-11T23:20:01.631Z,9.83
2018-03-11T23:22:28.123Z,9.74
2018-03-11T23:24:54.535Z,10.05
2018-03-11T23:27:20.903Z,10.00
2018-03-11T23:29:47.385Z,9.86
2018-03-11T23:32:13.760Z,9.80
2018-03-11T23:34:40.162Z,9.83
2018-03-11T23:37:06.576Z,10.12
2018-03-11T23:39:32.928Z,9.93
2018-03-11T23:41:59.257Z,9.87
2018-03-11T23:44:25.754Z,9.79
2018-03-11T23:46:52.120Z,9.60
2018-03-11T23:49:18.437Z,9.63
2018-03-11T23:51:44.810Z,9.72
2018-03-11T23:54:11.105Z,9.66
2018-03-11T23:56:37.552Z,9.46
2018-03-11T23:59:03.930Z,9.28
